Time;durP1;ratioP1;P1;durP2;ratioP2;P2;SDS_P1;SDS_P2;PMS_P1;PMS_P2;Temp;Humidity;BMP_temperature;BMP_pressure;BME280_temperature;BME280_humidity;BME280_pressure;Samples;Min_cycle;Max_cycle;Signal;HPM_P1;HPM_P2
2021/10/11 00:01:32;;;;;;;13.07;3.13;;;10.70;99.90;;;;;;5100742;28;20055;-66
2021/10/11 00:03:57;;;;;;;16.90;3.30;;;10.70;99.90;;;;;;5094924;28;20066;-66
2021/10/11 00:06:23;;;;;;;14.50;4.10;;;10.70;99.90;;;;;;5101989;28;20424;-67
2021/10/11 00:08:49;;;;;;;13.43;3.10;;;10.70;99.90;;;;;;5094706;28;20044;-67
2021/10/11 00:11:14;;;;;;;12.02;2.85;;;10.70;99.90;;;;;;5100928;28;20048;-67
2021/10/11 00:13:40;;;;;;;12.35;3.38;;;10.80;99.90;;;;;;5094773;28;20036;-67
2021/10/11 00:16:06;;;;;;;11.20;2.65;;;10.90;99.90;;;;;;5101330;28;20112;-67
2021/10/11 00:18:31;;;;;;;17.65;4.18;;;11.00;99.90;;;;;;5094049;28;20032;-67
2021/10/11 00:20:57;;;;;;;15.23;3.50;;;10.90;99.90;;;;;;5100227;28;20043;-67
2021/10/11 00:23:23;;;;;;;15.85;2.97;;;11.00;99.90;;;;;;5092942;28;20040;-67
2021/10/11 00:25:49;;;;;;;12.70;3.92;;;11.00;99.90;;;;;;5081126;28;20396;-67
2021/10/11 00:28:14;;;;;;;18.63;3.53;;;10.90;99.90;;;;;;5092402;28;20033;-67
2021/10/11 00:30:40;;;;;;;13.45;3.63;;;11.00;99.90;;;;;;5098657;28;20188;-67
2021/10/11 00:33:06;;;;;;;15.32;3.38;;;11.00;99.90;;;;;;5102333;28;20057;-67
2021/10/11 00:35:32;;;;;;;8.95;3.50;;;10.90;99.90;;;;;;5099298;28;20032;-67
2021/10/11 00:37:58;;;;;;;12.70;2.70;;;10.90;99.90;;;;;;5094708;28;20097;-67
2021/10/11 00:40:24;;;;;;;12.57;2.67;;;10.80;99.90;;;;;;5098544;28;20036;-67
2021/10/11 00:42:50;;;;;;;9.18;3.22;;;10.70;99.90;;;;;;5105973;28;20044;-67
2021/10/11 00:45:16;;;;;;;14.25;3.47;;;10.70;99.90;;;;;;5098468;28;20074;-67
2021/10/11 00:47:42;;;;;;;19.15;3.53;;;10.60;99.90;;;;;;5096462;28;20036;-67
2021/10/11 00:50:08;;;;;;;15.93;3.70;;;10.60;99.90;;;;;;5097551;28;20044;-67
2021/10/11 00:52:34;;;;;;;13.07;2.72;;;10.60;99.90;;;;;;5098818;28;20043;-67
2021/10/11 00:55:00;;;;;;;13.13;3.30;;;10.50;99.90;;;;;;5098854;28;20064;-67
2021/10/11 00:57:26;;;;;;;16.48;3.03;;;10.40;99.90;;;;;;5090851;28;20068;-67
2021/10/11 00:59:52;;;;;;;15.65;4.10;;;10.30;99.90;;;;;;5100914;28;20075;-67
2021/10/11 01:02:18;;;;;;;12.65;4.13;;;10.40;99.90;;;;;;5077311;28;20053;-67
2021/10/11 01:04:43;;;;;;;16.10;2.97;;;10.30;99.90;;;;;;5101827;28;20439;-67
2021/10/11 01:07:10;;;;;;;17.52;3.03;;;10.30;99.90;;;;;;5094729;28;20044;-67
2021/10/11 01:09:36;;;;;;;14.80;3.72;;;10.20;99.90;;;;;;5083294;28;20503;-67
2021/10/11 01:12:01;;;;;;;14.77;3.13;;;10.20;99.90;;;;;;5094454;28;20086;-67
2021/10/11 01:14:28;;;;;;;10.20;2.88;;;10.20;99.90;;;;;;5082041;28;20044;-67
2021/10/11 01:16:55;;;;;;;8.00;3.10;;;10.10;99.90;;;;;;5104251;28;20040;-66
2021/10/11 01:19:20;;;;;;;11.27;2.70;;;10.00;99.90;;;;;;5096849;28;20047;-67
2021/10/11 01:21:46;;;;;;;15.45;3.42;;;9.90;99.90;;;;;;5100457;28;20043;-66
2021/10/11 01:24:12;;;;;;;14.25;3.13;;;10.00;99.90;;;;;;5100044;28;20044;-67
2021/10/11 01:26:43;;;;;;;13.70;3.50;;;10.00;99.90;;;;;;5091781;28;20038;-67
2021/10/11 01:29:14;;;;;;;21.08;3.72;;;10.00;99.90;;;;;;5086806;28;20491;-66
2021/10/11 01:31:42;;;;;;;16.50;2.90;;;9.90;99.90;;;;;;5092357;28;20054;-67
2021/10/11 01:34:07;;;;;;;17.60;3.30;;;9.90;99.90;;;;;;5099436;28;20037;-67
2021/10/11 01:36:33;;;;;;;13.10;2.88;;;9.90;99.90;;;;;;5091889;28;20063;-67
2021/10/11 01:39:05;;;;;;;17.27;3.40;;;9.90;99.90;;;;;;5099195;28;20124;-67
2021/10/11 01:41:31;;;;;;;15.57;2.83;;;9.90;99.90;;;;;;5091202;28;20040;-68
2021/10/11 01:43:57;;;;;;;17.33;2.90;;;9.80;99.90;;;;;;5081000;28;20253;-68
2021/10/11 01:46:23;;;;;;;18.65;2.92;;;9.80;99.90;;;;;;5093177;28;20055;-68
2021/10/11 01:48:49;;;;;;;15.90;3.05;;;9.80;99.90;;;;;;5096722;28;20044;-68
2021/10/11 01:51:14;;;;;;;12.43;3.10;;;9.80;99.90;;;;;;5076682;28;20111;-68
2021/10/11 01:53:40;;;;;;;11.73;2.60;;;9.70;99.90;;;;;;5075388;28;20416;-67
2021/10/11 01:56:06;;;;;;;13.07;2.97;;;9.80;99.90;;;;;;5085739;28;20075;-67
2021/10/11 01:58:32;;;;;;;20.35;4.15;;;9.70;99.90;;;;;;5097380;28;20078;-67
2021/10/11 02:00:58;;;;;;;16.52;2.80;;;9.70;99.90;;;;;;5104207;28;20047;-68
2021/10/11 02:03:24;;;;;;;13.18;2.30;;;9.70;99.90;;;;;;5099224;28;20055;-67
2021/10/11 02:05:50;;;;;;;20.88;3.35;;;9.70;99.90;;;;;;5101576;28;20411;-67
2021/10/11 02:08:16;;;;;;;11.23;2.95;;;9.60;99.90;;;;;;5101516;28;20036;-67
2021/10/11 02:10:41;;;;;;;13.40;2.90;;;9.70;99.90;;;;;;5099109;28;20044;-68
2021/10/11 02:13:07;;;;;;;21.23;4.13;;;9.70;99.90;;;;;;5103025;28;20036;-68
2021/10/11 02:15:32;;;;;;;13.63;2.67;;;9.70;99.90;;;;;;5079665;28;20147;-68
2021/10/11 02:17:58;;;;;;;23.17;3.47;;;9.70;99.90;;;;;;5104671;28;20040;-68
2021/10/11 02:20:25;;;;;;;18.52;2.58;;;9.70;99.90;;;;;;5079030;28;20050;-68
2021/10/11 02:22:51;;;;;;;11.88;2.65;;;9.70;99.90;;;;;;5103695;28;20062;-68
2021/10/11 02:25:16;;;;;;;14.85;2.45;;;9.60;99.90;;;;;;5094659;28;20051;-67
2021/10/11 02:27:42;;;;;;;11.45;2.08;;;9.50;99.90;;;;;;5083438;28;20044;-67
2021/10/11 02:30:10;;;;;;;21.38;2.65;;;9.50;99.90;;;;;;5095044;28;20044;-68
2021/10/11 02:32:37;;;;;;;21.13;2.95;;;9.60;99.90;;;;;;5084305;28;20154;-68
2021/10/11 02:35:04;;;;;;;9.93;1.75;;;9.60;99.90;;;;;;5094167;28;20044;-68
2021/10/11 02:37:30;;;;;;;15.40;2.70;;;9.60;99.90;;;;;;5083768;28;20070;-68
2021/10/11 02:39:56;;;;;;;16.98;3.53;;;9.60;99.90;;;;;;5093572;28;20044;-68
2021/10/11 02:42:21;;;;;;;11.60;2.05;;;9.60;99.90;;;;;;5101517;28;20100;-68
2021/10/11 02:44:47;;;;;;;8.10;1.90;;;9.60;99.90;;;;;;5094377;28;20056;-67
2021/10/11 02:47:13;;;;;;;10.88;2.70;;;9.60;99.90;;;;;;5101225;28;20056;-68
2021/10/11 02:49:39;;;;;;;27.23;3.38;;;9.50;99.90;;;;;;5076023;28;20049;-67
2021/10/11 02:52:05;;;;;;;11.02;2.55;;;9.60;99.90;;;;;;5086077;28;20043;-68
2021/10/11 02:54:31;;;;;;;19.10;2.60;;;9.70;99.90;;;;;;5084153;28;20437;-68
2021/10/11 02:56:57;;;;;;;14.80;3.30;;;9.70;99.90;;;;;;5104696;28;20066;-68
2021/10/11 02:59:23;;;;;;;22.67;2.92;;;9.80;99.90;;;;;;5104351;28;20055;-68
2021/10/11 03:01:49;;;;;;;14.40;2.88;;;9.90;99.90;;;;;;5099490;28;20036;-67
2021/10/11 03:04:14;;;;;;;16.33;2.40;;;9.90;99.90;;;;;;5106401;28;20040;-67
2021/10/11 03:06:40;;;;;;;15.50;3.00;;;10.00;99.90;;;;;;5100639;28;20044;-68
2021/10/11 03:09:06;;;;;;;15.90;2.38;;;9.90;99.90;;;;;;5089649;28;20046;-68
2021/10/11 03:11:31;;;;;;;8.13;2.33;;;9.90;99.90;;;;;;5100040;28;20039;-68
2021/10/11 03:13:57;;;;;;;17.60;2.45;;;10.00;99.90;;;;;;5089676;28;20088;-68
2021/10/11 03:16:23;;;;;;;16.48;2.63;;;10.10;99.90;;;;;;5100487;28;20036;-68
2021/10/11 03:18:49;;;;;;;15.75;2.65;;;10.10;99.90;;;;;;5106958;28;20039;-68
2021/10/11 03:21:20;;;;;;;16.05;2.35;;;10.20;99.90;;;;;;5081665;28;20344;-68
2021/10/11 03:23:48;;;;;;;11.52;2.58;;;10.40;99.90;;;;;;5106942;28;20052;-68
2021/10/11 03:26:14;;;;;;;19.20;2.97;;;10.30;99.90;;;;;;5108766;28;20047;-68
2021/10/11 03:28:40;;;;;;;14.70;2.00;;;10.30;99.90;;;;;;5084373;28;20105;-68
2021/10/11 03:31:06;;;;;;;12.15;2.53;;;10.40;99.90;;;;;;5089041;28;20086;-68
2021/10/11 03:33:31;;;;;;;15.07;2.30;;;10.40;99.90;;;;;;5092395;28;20044;-68
2021/10/11 03:35:57;;;;;;;10.82;2.30;;;10.40;99.90;;;;;;5109585;28;20040;-68
2021/10/11 03:38:23;;;;;;;7.80;2.28;;;10.40;99.90;;;;;;5101795;28;20055;-68
2021/10/11 03:40:48;;;;;;;15.27;2.88;;;10.50;99.90;;;;;;5108069;28;20100;-68
2021/10/11 03:43:14;;;;;;;12.88;1.88;;;10.50;99.90;;;;;;5101570;28;20051;-68
2021/10/11 03:45:40;;;;;;;11.70;1.85;;;10.30;99.90;;;;;;5090496;28;20060;-69
2021/10/11 03:48:06;;;;;;;13.13;2.35;;;10.30;99.90;;;;;;5101756;28;20045;-68
2021/10/11 03:50:32;;;;;;;14.68;2.20;;;10.30;99.90;;;;;;5108469;28;20177;-67
2021/10/11 03:52:58;;;;;;;19.75;2.65;;;10.20;99.90;;;;;;5084610;28;20048;-68
2021/10/11 03:55:24;;;;;;;20.48;2.40;;;10.20;99.90;;;;;;5106924;28;20055;-67
2021/10/11 03:57:49;;;;;;;17.50;2.75;;;10.20;99.90;;;;;;5103947;28;20059;-68
2021/10/11 04:00:15;;;;;;;14.63;2.38;;;10.10;99.90;;;;;;5088309;28;20554;-68
2021/10/11 04:02:41;;;;;;;18.73;2.35;;;10.10;99.90;;;;;;5087846;28;20154;-68
2021/10/11 04:05:08;;;;;;;19.95;3.00;;;10.10;99.90;;;;;;5098639;28;20044;-67
2021/10/11 04:07:35;;;;;;;22.50;3.45;;;10.10;99.90;;;;;;5104572;28;20123;-67
2021/10/11 04:10:04;;;;;;;11.25;1.92;;;10.00;99.90;;;;;;5097900;28;20060;-68
2021/10/11 04:12:37;;;;;;;17.60;3.08;;;10.10;99.90;;;;;;5105582;28;20044;-68
2021/10/11 04:15:06;;;;;;;12.85;2.60;;;10.00;99.90;;;;;;5098387;28;20119;-68
2021/10/11 04:17:37;;;;;;;15.93;2.22;;;10.00;99.90;;;;;;5104733;28;20051;-68
2021/10/11 04:20:07;;;;;;;13.98;2.50;;;10.10;99.90;;;;;;5097450;28;20048;-68
2021/10/11 04:22:33;;;;;;;10.73;2.65;;;10.00;99.90;;;;;;5086501;28;20051;-68
2021/10/11 04:24:59;;;;;;;16.17;2.70;;;10.00;99.90;;;;;;5092915;28;20046;-68
2021/10/11 04:27:25;;;;;;;19.75;3.33;;;10.00;99.90;;;;;;5081391;28;20084;-68
2021/10/11 04:29:50;;;;;;;11.93;2.05;;;9.90;99.90;;;;;;5092139;28;20040;-68
2021/10/11 04:32:16;;;;;;;9.45;2.33;;;9.90;99.90;;;;;;5099200;28;20531;-68
2021/10/11 04:34:42;;;;;;;24.80;3.17;;;9.90;99.90;;;;;;5091930;28;20086;-68
2021/10/11 04:37:07;;;;;;;15.20;2.53;;;9.80;99.90;;;;;;5098897;28;20040;-68
2021/10/11 04:39:33;;;;;;;18.58;3.20;;;9.70;99.90;;;;;;5105516;28;20036;-68
2021/10/11 04:41:59;;;;;;;15.93;2.67;;;9.80;99.90;;;;;;5080325;28;20051;-68
2021/10/11 04:44:24;;;;;;;12.77;2.65;;;9.80;99.90;;;;;;5105506;28;20051;-68
2021/10/11 04:46:50;;;;;;;17.63;2.80;;;9.70;99.90;;;;;;5097849;28;20076;-68
2021/10/11 04:49:16;;;;;;;20.38;3.13;;;9.80;99.90;;;;;;5104928;28;20048;-68
2021/10/11 04:51:41;;;;;;;11.45;3.47;;;9.70;99.90;;;;;;5098142;28;20048;-68
2021/10/11 04:54:07;;;;;;;13.80;2.60;;;9.70;99.90;;;;;;5105061;28;20103;-68
2021/10/11 04:56:33;;;;;;;36.50;5.05;;;9.70;99.90;;;;;;5096922;28;20124;-68
2021/10/11 04:58:58;;;;;;;13.70;2.47;;;9.70;99.90;;;;;;5086747;28;20043;-68
2021/10/11 05:01:24;;;;;;;19.77;3.47;;;9.70;99.90;;;;;;5094186;28;20046;-68
2021/10/11 05:03:50;;;;;;;16.90;3.47;;;9.60;99.90;;;;;;5085324;28;20088;-68
2021/10/11 05:06:15;;;;;;;17.52;2.78;;;9.70;99.90;;;;;;5070256;28;20040;-68
2021/10/11 05:08:41;;;;;;;14.93;2.75;;;9.80;99.90;;;;;;5104353;28;20032;-68
2021/10/11 05:11:10;;;;;;;19.40;3.90;;;9.90;99.90;;;;;;5084520;28;21514;-68
2021/10/11 05:13:35;;;;;;;17.30;3.47;;;9.90;99.90;;;;;;5099103;28;20153;-68
2021/10/11 05:16:01;;;;;;;24.20;3.17;;;9.80;99.90;;;;;;5104028;28;20044;-68
2021/10/11 05:18:27;;;;;;;20.35;2.35;;;9.80;99.90;;;;;;5098006;28;20090;-68
2021/10/11 05:20:53;;;;;;;11.13;2.88;;;9.80;99.90;;;;;;5086411;28;20123;-68
2021/10/11 05:23:19;;;;;;;16.02;2.85;;;9.80;99.90;;;;;;5096820;28;20040;-68
2021/10/11 05:25:45;;;;;;;17.75;2.90;;;9.80;99.90;;;;;;5098784;28;20050;-68
2021/10/11 05:28:11;;;;;;;18.02;2.78;;;9.70;99.90;;;;;;5073978;28;20092;-68
2021/10/11 05:30:40;;;;;;;18.13;3.15;;;9.60;99.90;;;;;;5099405;28;20086;-68
2021/10/11 05:33:08;;;;;;;14.65;3.83;;;9.70;99.90;;;;;;5103344;28;20047;-68
2021/10/11 05:35:35;;;;;;;14.73;2.45;;;9.70;99.90;;;;;;5099159;28;20393;-68
2021/10/11 05:38:04;;;;;;;;;;;9.70;99.90;;;;;;5096370;28;20036;-68
2021/10/11 05:40:31;;;;;;;14.70;3.55;;;9.70;99.90;;;;;;5098174;28;19920;-69
2021/10/11 05:42:57;;;;;;;16.10;3.53;;;9.70;99.90;;;;;;5091103;28;20075;-69
2021/10/11 05:45:22;;;;;;;33.30;4.97;;;9.70;99.90;;;;;;5097221;28;20060;-69
2021/10/11 05:47:48;;;;;;;16.42;3.10;;;9.60;99.90;;;;;;5092826;28;20071;-69
2021/10/11 05:50:14;;;;;;;19.05;3.72;;;9.60;99.90;;;;;;5083832;28;20487;-69
2021/10/11 05:52:39;;;;;;;16.77;2.40;;;9.60;99.90;;;;;;5069533;28;20036;-69
2021/10/11 05:55:06;;;;;;;28.50;3.67;;;9.60;99.90;;;;;;5079106;28;20090;-69
2021/10/11 05:57:32;;;;;;;18.92;3.28;;;9.60;99.90;;;;;;5101349;28;20040;-69
2021/10/11 05:59:59;;;;;;;22.98;4.22;;;9.60;99.90;;;;;;5097026;28;20079;-69
2021/10/11 06:02:25;;;;;;;20.80;3.20;;;9.60;99.90;;;;;;5097614;28;20487;-69
2021/10/11 06:04:51;;;;;;;24.77;3.42;;;9.70;99.90;;;;;;5098397;28;20072;-69
2021/10/11 06:07:16;;;;;;;19.95;3.17;;;9.70;99.90;;;;;;5102819;28;20043;-69
2021/10/11 06:09:42;;;;;;;20.48;4.07;;;9.60;99.90;;;;;;5099864;28;20036;-69
2021/10/11 06:12:08;;;;;;;25.42;3.28;;;9.60;99.90;;;;;;5082209;28;20071;-69
2021/10/11 06:14:33;;;;;;;19.95;3.05;;;9.60;99.90;;;;;;5102119;28;20040;-69
2021/10/11 06:16:59;;;;;;;18.75;3.40;;;9.70;99.90;;;;;;5097976;28;20036;-69
2021/10/11 06:19:25;;;;;;;20.50;3.78;;;9.70;99.90;;;;;;5103763;28;20044;-69
2021/10/11 06:21:50;;;;;;;17.83;3.10;;;9.60;99.90;;;;;;5097521;28;20399;-68
2021/10/11 06:24:16;;;;;;;21.17;3.30;;;9.60;99.90;;;;;;5103276;28;20047;-68
2021/10/11 06:26:42;;;;;;;22.40;4.05;;;9.60;99.90;;;;;;5073007;28;20066;-69
2021/10/11 06:29:07;;;;;;;18.23;3.22;;;9.50;99.90;;;;;;5098913;28;20039;-69
2021/10/11 06:31:33;;;;;;;14.52;3.28;;;9.50;99.90;;;;;;5091911;28;20143;-68
2021/10/11 06:33:59;;;;;;;20.27;3.55;;;9.50;99.90;;;;;;5080617;28;20048;-68
2021/10/11 06:36:27;;;;;;;14.50;2.88;;;9.40;99.90;;;;;;5091764;28;20032;-68
2021/10/11 06:38:53;;;;;;;17.08;4.10;;;9.40;99.90;;;;;;5099105;28;20048;-68
2021/10/11 06:41:19;;;;;;;12.43;3.03;;;9.40;99.90;;;;;;5090613;28;20393;-68
2021/10/11 06:43:45;;;;;;;28.45;4.22;;;9.40;99.90;;;;;;5098278;28;20112;-70
2021/10/11 06:46:10;;;;;;;19.95;4.15;;;9.50;99.90;;;;;;5092238;28;20060;-68
2021/10/11 06:48:36;;;;;;;23.25;3.75;;;9.60;99.90;;;;;;5097190;28;20048;-69
2021/10/11 06:51:02;;;;;;;11.25;2.92;;;9.60;99.90;;;;;;5075346;28;20045;-69
2021/10/11 06:53:28;;;;;;;21.90;2.95;;;9.70;99.90;;;;;;5095105;28;20072;-69
2021/10/11 06:55:53;;;;;;;21.48;3.33;;;9.80;99.90;;;;;;5077541;28;20053;-69
2021/10/11 06:58:19;;;;;;;18.60;3.53;;;9.90;99.90;;;;;;5092729;28;20036;-68
2021/10/11 07:00:44;;;;;;;16.90;3.42;;;10.00;99.90;;;;;;5079167;28;20040;-69
2021/10/11 07:03:10;;;;;;;11.60;2.33;;;10.10;99.90;;;;;;5091215;28;20047;-69
2021/10/11 07:05:36;;;;;;;14.77;3.72;;;10.20;99.90;;;;;;5080333;28;20071;-69
2021/10/11 07:08:08;;;;;;;22.17;3.63;;;10.40;99.90;;;;;;5091779;28;20067;-69
2021/10/11 07:10:35;;;;;;;18.77;3.78;;;10.40;99.90;;;;;;5097682;28;20045;-69
2021/10/11 07:13:02;;;;;;;15.65;3.25;;;10.50;99.90;;;;;;5091372;28;20052;-69
2021/10/11 07:15:29;;;;;;;14.30;2.40;;;10.60;99.90;;;;;;5098115;28;20062;-68
2021/10/11 07:17:56;;;;;;;15.40;2.53;;;10.70;99.90;;;;;;5091065;28;20044;-68
2021/10/11 07:20:23;;;;;;;13.57;2.63;;;10.80;99.90;;;;;;5097932;28;20062;-68
2021/10/11 07:22:49;;;;;;;17.10;3.75;;;10.80;99.90;;;;;;5090793;28;20092;-70
2021/10/11 07:25:14;;;;;;;10.45;2.63;;;10.80;99.90;;;;;;5073867;28;20072;-68
2021/10/11 07:27:40;;;;;;;8.90;2.78;;;11.00;99.90;;;;;;5081391;28;20044;-68
2021/10/11 07:30:06;;;;;;;15.88;3.22;;;11.00;99.90;;;;;;5092351;28;20044;-68
2021/10/11 07:32:32;;;;;;;18.25;3.47;;;11.10;99.90;;;;;;5099356;28;20051;-69
2021/10/11 07:34:59;;;;;;;13.77;2.63;;;11.10;99.90;;;;;;5092152;28;20032;-70
2021/10/11 07:37:25;;;;;;;11.02;1.92;;;11.20;99.90;;;;;;5081351;28;20500;-69
2021/10/11 07:39:51;;;;;;;8.43;2.13;;;11.30;99.90;;;;;;5094057;28;20048;-69
2021/10/11 07:42:17;;;;;;;14.35;2.63;;;11.30;99.90;;;;;;5102808;28;20055;-69
2021/10/11 07:44:42;;;;;;;11.68;2.10;;;11.20;99.90;;;;;;5095215;28;20070;-69
2021/10/11 07:47:08;;;;;;;13.63;3.35;;;11.20;99.90;;;;;;5102554;28;20048;-68
2021/10/11 07:49:34;;;;;;;11.15;2.22;;;11.30;99.90;;;;;;5078155;28;20060;-69
2021/10/11 07:52:00;;;;;;;13.57;3.70;;;11.30;99.90;;;;;;5101180;28;20043;-69
2021/10/11 07:54:25;;;;;;;13.18;2.35;;;11.30;99.90;;;;;;5097828;28;20048;-69
2021/10/11 07:56:51;;;;;;;9.40;1.70;;;11.30;99.90;;;;;;5098706;28;20111;-69
2021/10/11 07:59:17;;;;;;;13.77;2.38;;;11.40;99.90;;;;;;5099937;28;20052;-69
2021/10/11 08:01:42;;;;;;;12.23;2.00;;;11.40;99.90;;;;;;5095299;28;20048;-69
2021/10/11 08:04:08;;;;;;;11.38;2.47;;;11.50;99.90;;;;;;5101834;28;20048;-70
2021/10/11 08:06:34;;;;;;;12.15;2.30;;;11.60;99.90;;;;;;5096278;28;20037;-69
2021/10/11 08:09:00;;;;;;;11.65;2.38;;;11.60;99.90;;;;;;5103620;28;20112;-69
2021/10/11 08:11:25;;;;;;;13.90;2.38;;;11.60;99.90;;;;;;5094706;28;20770;-69
2021/10/11 08:13:51;;;;;;;8.73;1.42;;;11.70;99.90;;;;;;5102374;28;20478;-69
2021/10/11 08:16:17;;;;;;;12.20;1.77;;;11.80;99.90;;;;;;5095070;28;20040;-69
2021/10/11 08:18:43;;;;;;;8.35;1.73;;;11.90;99.90;;;;;;5101949;28;20492;-69
2021/10/11 08:21:09;;;;;;;9.88;2.10;;;12.00;99.90;;;;;;5093916;28;20047;-69
2021/10/11 08:23:39;;;;;;;9.52;1.73;;;12.10;99.90;;;;;;5100923;28;20124;-69
2021/10/11 08:26:07;;;;;;;8.75;1.85;;;12.20;99.90;;;;;;5084486;28;20461;-69
2021/10/11 08:28:33;;;;;;;10.48;1.75;;;12.30;99.90;;;;;;5096836;28;20086;-69
2021/10/11 08:30:59;;;;;;;9.85;1.77;;;12.40;99.90;;;;;;5101588;28;20048;-69
2021/10/11 08:33:24;;;;;;;8.05;1.50;;;12.50;99.90;;;;;;5106710;28;20051;-69
2021/10/11 08:35:50;;;;;;;13.13;2.95;;;12.50;99.90;;;;;;5085199;28;20048;-69
2021/10/11 08:38:16;;;;;;;12.20;1.80;;;12.60;99.90;;;;;;5096228;28;20603;-69
2021/10/11 08:40:42;;;;;;;10.38;2.00;;;12.60;99.90;;;;;;5103193;28;20040;-69
2021/10/11 08:43:08;;;;;;;12.63;1.80;;;12.70;99.90;;;;;;5095480;28;20064;-69
2021/10/11 08:45:34;;;;;;;9.63;1.45;;;12.80;99.90;;;;;;5102477;28;20075;-69
2021/10/11 08:47:59;;;;;;;12.00;2.00;;;12.90;99.90;;;;;;5103036;28;20048;-70
2021/10/11 08:50:25;;;;;;;12.15;1.60;;;12.90;99.90;;;;;;5101657;28;20048;-70
2021/10/11 08:52:51;;;;;;;11.10;2.28;;;12.70;99.90;;;;;;5079543;28;20055;-70
2021/10/11 08:55:17;;;;;;;32.53;3.72;;;12.50;99.90;;;;;;5099630;28;20055;-70
2021/10/11 08:57:42;;;;;;;15.02;2.45;;;12.40;99.90;;;;;;5102185;28;20044;-70
2021/10/11 09:00:18;;;;;;;10.68;1.80;;;12.30;99.90;;;;;;5083338;28;20044;-70
2021/10/11 09:02:50;;;;;;;7.53;1.90;;;12.30;99.90;;;;;;5099224;28;20040;-70
2021/10/11 09:05:25;;;;;;;10.48;1.98;;;12.30;99.90;;;;;;5079368;28;20055;-70
2021/10/11 09:08:07;;;;;;;11.23;2.15;;;12.30;99.90;;;;;;5080681;28;20052;-70
2021/10/11 09:10:57;;;;;;;13.55;2.20;;;12.40;99.90;;;;;;5080111;28;20055;-70
2021/10/11 09:13:41;;;;;;;13.70;2.60;;;12.40;99.90;;;;;;5076658;28;20049;-70
2021/10/11 09:16:16;;;;;;;10.10;2.50;;;12.40;99.90;;;;;;5093411;28;20616;-70
2021/10/11 09:18:48;;;;;;;18.00;2.25;;;12.50;99.90;;;;;;5093165;28;20051;-71
2021/10/11 09:21:14;;;;;;;20.10;2.97;;;12.70;99.90;;;;;;5100403;28;20044;-70
2021/10/11 09:23:39;;;;;;;15.15;2.20;;;12.80;99.90;;;;;;5103841;28;20074;-69
2021/10/11 09:26:20;;;;;;;19.20;2.05;;;13.00;99.90;;;;;;5095688;28;20058;-69
2021/10/11 09:29:00;;;;;;;13.30;2.33;;;13.20;99.90;;;;;;5103385;28;20051;-69
2021/10/11 09:31:41;;;;;;;15.57;2.53;;;13.50;99.90;;;;;;5095704;28;20517;-69
2021/10/11 09:34:07;;;;;;;8.55;1.52;;;13.70;99.90;;;;;;5084616;28;20073;-68
2021/10/11 09:36:34;;;;;;;13.43;2.42;;;13.90;99.90;;;;;;5095351;28;20044;-68
2021/10/11 09:39:00;;;;;;;13.23;2.85;;;14.10;99.90;;;;;;5084161;28;20233;-68
2021/10/11 09:41:27;;;;;;;9.97;2.17;;;14.30;99.90;;;;;;5084611;28;20040;-69
2021/10/11 09:43:52;;;;;;;15.90;2.72;;;14.60;99.90;;;;;;5102460;28;20424;-69
2021/10/11 09:46:20;;;;;;;12.93;2.20;;;15.00;99.90;;;;;;5094124;28;20074;-69
2021/10/11 09:48:55;;;;;;;7.85;1.65;;;15.10;99.90;;;;;;5101598;28;20047;-69
2021/10/11 09:51:22;;;;;;;18.48;2.63;;;15.20;99.90;;;;;;5095031;28;20053;-69
2021/10/11 09:53:49;;;;;;;11.18;1.70;;;15.30;99.90;;;;;;5101314;28;20039;-70
2021/10/11 09:56:15;;;;;;;10.50;1.70;;;15.30;99.90;;;;;;5095927;28;20032;-71
2021/10/11 09:58:41;;;;;;;9.15;1.63;;;15.20;99.90;;;;;;5099383;28;20047;-71
2021/10/11 10:01:07;;;;;;;14.10;1.75;;;15.10;99.90;;;;;;5097968;28;20036;-70
2021/10/11 10:03:34;;;;;;;16.25;1.77;;;15.00;99.90;;;;;;5096309;28;20052;-71
2021/10/11 10:06:02;;;;;;;10.10;2.28;;;15.20;99.90;;;;;;5081196;28;20052;-70
2021/10/11 10:08:28;;;;;;;;;;;15.30;99.90;;;;;;5095630;28;20045;-70
2021/10/11 10:10:59;;;;;;;8.00;1.92;;;15.10;99.90;;;;;;5100250;28;19924;-70
2021/10/11 10:13:26;;;;;;;7.28;1.38;;;15.00;99.90;;;;;;5094183;28;20041;-70
2021/10/11 10:15:55;;;;;;;7.95;1.73;;;14.90;99.90;;;;;;5101484;28;20044;-70
2021/10/11 10:18:21;;;;;;;7.03;1.80;;;14.80;99.90;;;;;;5094514;28;20152;-70
2021/10/11 10:20:54;;;;;;;10.95;1.70;;;14.80;99.90;;;;;;5101346;28;20387;-70
2021/10/11 10:23:27;;;;;;;7.35;1.85;;;14.70;99.90;;;;;;5093948;28;20095;-70
2021/10/11 10:25:55;;;;;;;4.95;1.10;;;14.60;99.90;;;;;;5096427;28;20044;-70
2021/10/11 10:28:22;;;;;;;6.43;1.02;;;14.50;99.90;;;;;;5089364;28;20071;-70
2021/10/11 10:31:02;;;;;;;8.50;1.98;;;14.40;99.90;;;;;;5096096;28;20108;-71
2021/10/11 10:33:41;;;;;;;5.88;1.20;;;14.50;99.90;;;;;;5071551;28;20048;-70
2021/10/11 10:36:19;;;;;;;4.35;1.27;;;14.50;99.90;;;;;;5078234;28;20052;-70
2021/10/11 10:38:58;;;;;;;7.22;1.15;;;14.60;99.90;;;;;;5101436;28;20111;-70
2021/10/11 10:41:24;;;;;;;8.10;1.50;;;14.60;99.90;;;;;;5080211;28;20507;-70
2021/10/11 10:43:50;;;;;;;11.05;1.80;;;14.60;99.90;;;;;;5101150;28;20044;-72
2021/10/11 10:46:16;;;;;;;11.73;1.42;;;14.60;99.90;;;;;;5073486;28;20056;-70
2021/10/11 10:48:53;;;;;;;10.02;1.58;;;14.60;99.90;;;;;;5082571;28;20044;-70
2021/10/11 10:51:20;;;;;;;6.07;1.20;;;14.50;99.90;;;;;;5064075;28;20055;-70
2021/10/11 10:53:51;;;;;;;11.45;1.83;;;14.70;99.90;;;;;;5082984;28;20033;-70
2021/10/11 10:56:17;;;;;;;10.57;1.38;;;14.80;99.90;;;;;;5073528;28;20110;-70
2021/10/11 10:58:42;;;;;;;5.72;1.02;;;14.70;99.90;;;;;;5080143;28;20467;-70
2021/10/11 11:01:08;;;;;;;10.05;1.75;;;14.80;99.90;;;;;;5070463;28;20040;-69
2021/10/11 11:03:34;;;;;;;13.02;1.45;;;14.90;99.90;;;;;;5079998;28;20386;-69
2021/10/11 11:06:04;;;;;;;6.32;1.40;;;15.10;99.90;;;;;;5073678;28;20044;-69
2021/10/11 11:08:29;;;;;;;10.60;1.88;;;15.30;99.90;;;;;;5081020;28;20094;-69
2021/10/11 11:11:00;;;;;;;10.30;2.05;;;15.40;99.90;;;;;;5073311;28;20040;-69
2021/10/11 11:13:26;;;;;;;6.88;1.65;;;15.50;99.90;;;;;;5081402;28;20044;-69
2021/10/11 11:15:52;;;;;;;6.65;1.67;;;15.60;99.90;;;;;;5077151;28;20044;-69
2021/10/11 11:18:21;;;;;;;8.57;1.70;;;15.50;99.90;;;;;;5084205;28;20040;-69
2021/10/11 11:20:49;;;;;;;11.10;1.38;;;15.50;99.90;;;;;;5077396;28;20032;-70
2021/10/11 11:23:22;;;;;;;13.27;2.25;;;15.70;99.90;;;;;;5084106;28;20037;-69
2021/10/11 11:25:51;;;;;;;5.55;1.10;;;15.90;99.90;;;;;;5086366;28;20047;-70
2021/10/11 11:28:24;;;;;;;7.05;1.45;;;16.00;99.90;;;;;;5085762;28;20631;-70
2021/10/11 11:30:51;;;;;;;11.70;1.40;;;15.80;99.90;;;;;;5086657;28;20068;-70
2021/10/11 11:33:22;;;;;;;11.55;1.75;;;15.40;99.90;;;;;;5080161;28;20059;-71
2021/10/11 11:35:54;;;;;;;5.15;1.20;;;14.70;99.90;;;;;;5087033;28;20052;-70
2021/10/11 11:38:22;;;;;;;5.50;1.40;;;14.40;99.90;;;;;;5079688;28;20311;-70
2021/10/11 11:40:54;;;;;;;8.32;1.58;;;14.20;99.90;;;;;;5085849;28;20040;-70
2021/10/11 11:43:21;;;;;;;11.38;2.60;;;14.10;99.90;;;;;;5078910;28;20123;-70
2021/10/11 11:45:50;;;;;;;5.28;1.30;;;14.10;99.90;;;;;;5080703;28;20064;-70
2021/10/11 11:48:24;;;;;;;9.23;1.55;;;14.10;99.90;;;;;;5078779;28;20531;-70
2021/10/11 11:50:56;;;;;;;6.70;1.40;;;14.10;99.90;;;;;;5085809;28;20040;-70
2021/10/11 11:53:24;;;;;;;9.13;1.65;;;14.20;99.90;;;;;;5078420;28;20041;-70
2021/10/11 11:55:56;;;;;;;9.80;2.08;;;14.20;99.90;;;;;;5063202;28;20072;-70
2021/10/11 11:58:37;;;;;;;6.80;1.10;;;14.40;99.90;;;;;;5073486;28;20258;-70
2021/10/11 12:01:19;;;;;;;9.25;1.25;;;14.80;99.90;;;;;;5085283;28;20043;-70
2021/10/11 12:03:58;;;;;;;9.32;1.58;;;15.40;99.90;;;;;;5077905;28;20067;-71
2021/10/11 12:06:29;;;;;;;9.73;2.03;;;14.60;99.90;;;;;;5084676;28;20097;-72
2021/10/11 12:08:55;;;;;;;4.50;0.95;;;14.50;99.90;;;;;;5077895;28;20611;-71
2021/10/11 12:11:21;;;;;;;5.15;1.00;;;14.30;99.90;;;;;;5062422;28;20041;-71
2021/10/11 12:13:47;;;;;;;7.55;1.48;;;14.00;99.90;;;;;;5073432;28;20079;-70
2021/10/11 12:16:19;;;;;;;6.00;1.10;;;14.10;99.90;;;;;;5084110;28;20068;-70
2021/10/11 12:18:53;;;;;;;6.78;1.30;;;14.70;99.90;;;;;;5058857;28;20049;-70
2021/10/11 12:21:26;;;;;;;8.88;1.25;;;14.90;99.90;;;;;;5084297;28;20044;-69
2021/10/11 12:23:54;;;;;;;5.03;1.23;;;15.10;99.90;;;;;;5076449;28;20083;-69
2021/10/11 12:26:21;;;;;;;4.88;0.82;;;15.60;99.90;;;;;;5075472;28;20256;-69
2021/10/11 12:28:55;;;;;;;5.55;0.95;;;15.60;99.90;;;;;;5058716;28;20082;-68
2021/10/11 12:31:26;;;;;;;8.18;1.33;;;15.80;99.90;;;;;;5057838;28;20060;-68
2021/10/11 12:34:02;;;;;;;6.00;1.58;;;15.90;99.90;;;;;;5077198;28;20037;-68
2021/10/11 12:36:28;;;;;;;7.45;1.40;;;15.90;99.90;;;;;;5076467;28;20044;-68
2021/10/11 12:38:54;;;;;;;8.23;1.30;;;16.10;99.90;;;;;;5077141;28;20045;-68
2021/10/11 12:41:20;;;;;;;5.85;1.10;;;16.00;99.90;;;;;;5073404;28;20136;-67
2021/10/11 12:43:53;;;;;;;12.27;1.40;;;15.60;99.90;;;;;;5078685;28;20099;-68